createdAt,value
2023-05-02T00:04:32.810Z,10.97
2023-05-02T00:08:57.332Z,10.94
2023-05-02T00:13:06.849Z,10.91
2023-05-02T00:17:52.308Z,10.88
2023-05-02T00:22:16.563Z,10.88
2023-05-02T00:26:49.712Z,10.86
2023-05-02T00:31:27.353Z,10.80
2023-05-02T00:35:58.513Z,10.74
2023-05-02T00:40:42.498Z,10.71
2023-05-02T00:44:46.550Z,10.71
2023-05-02T00:50:12.747Z,10.70
2023-05-02T00:54:32.411Z,10.78
2023-05-02T01:05:47.765Z,10.89
2023-05-02T01:09:56.060Z,10.81
2023-05-02T01:14:18.921Z,10.68
2023-05-02T01:19:01.984Z,10.57
2023-05-02T01:23:44.598Z,10.47
2023-05-02T01:28:20.473Z,10.39
2023-05-02T01:32:26.899Z,10.35
2023-05-02T01:36:51.434Z,10.38
2023-05-02T01:41:13.594Z,10.43
2023-05-02T01:45:16.853Z,10.48
2023-05-02T01:53:08.210Z,10.64
2023-05-02T01:57:51.984Z,10.79
2023-05-02T02:01:57.153Z,10.87
2023-05-02T02:06:42.592Z,10.93
2023-05-02T02:11:22.576Z,11.00
2023-05-02T02:15:29.615Z,11.07
2023-05-02T02:19:41.339Z,11.17
2023-05-02T02:23:54.531Z,11.28
2023-05-02T02:27:59.357Z,11.33
2023-05-02T02:32:43.751Z,11.38
2023-05-02T02:37:17.036Z,11.41
2023-05-02T02:42:01.759Z,11.40
2023-05-02T02:46:30.713Z,11.38
2023-05-02T02:51:28.089Z,11.36
2023-05-02T02:55:58.232Z,11.37
2023-05-02T03:00:52.029Z,11.38
2023-05-02T03:05:23.730Z,11.41
2023-05-02T03:09:46.382Z,11.49
2023-05-02T03:14:30.295Z,11.55
2023-05-02T03:19:02.134Z,11.57
2023-05-02T03:23:46.186Z,11.56
2023-05-02T03:28:14.287Z,11.56
2023-05-02T03:32:40.167Z,11.57
2023-05-02T03:36:47.951Z,11.60
2023-05-02T03:41:12.163Z,11.66
2023-05-02T03:45:16.744Z,11.78
2023-05-02T03:49:37.098Z,11.92
2023-05-02T03:54:04.722Z,12.11
2023-05-02T03:58:37.763Z,12.31
2023-05-02T04:03:13.517Z,12.57
2023-05-02T04:07:20.396Z,12.89
2023-05-02T04:11:33.121Z,13.30
2023-05-02T04:15:40.788Z,13.66
2023-05-02T04:19:40.949Z,13.96
2023-05-02T04:23:53.297Z,14.39
2023-05-02T04:28:25.418Z,14.87
2023-05-02T04:32:34.862Z,15.26
2023-05-02T04:36:22.978Z,15.75
2023-05-02T04:40:04.631Z,16.11
2023-05-02T04:43:45.377Z,16.17
2023-05-02T04:47:31.383Z,16.18
2023-05-02T04:51:31.067Z,16.17
2023-05-02T04:55:15.693Z,16.21
2023-05-02T04:58:41.675Z,16.30
2023-05-02T05:02:28.864Z,16.40
2023-05-02T05:05:56.279Z,16.51
2023-05-02T05:09:23.024Z,16.61
2023-05-02T05:12:51.767Z,16.72
2023-05-02T05:16:38.068Z,16.84
2023-05-02T05:20:27.412Z,17.01
2023-05-02T05:24:03.507Z,17.14
2023-05-02T05:27:50.581Z,17.26
2023-05-02T05:31:35.936Z,17.35
2023-05-02T05:35:19.016Z,17.44
2023-05-02T05:38:46.479Z,17.51
2023-05-02T05:42:32.430Z,17.57
2023-05-02T05:46:01.623Z,17.70
2023-05-02T05:49:29.559Z,17.84
2023-05-02T05:53:01.486Z,18.02
2023-05-02T05:56:45.551Z,18.21
2023-05-02T06:00:13.030Z,18.32
2023-05-02T06:04:08.944Z,18.45
2023-05-02T06:07:33.040Z,18.62
2023-05-02T06:11:23.188Z,18.75
2023-05-02T06:14:49.814Z,19.00
2023-05-02T06:18:18.682Z,19.19
2023-05-02T06:22:03.541Z,19.37
2023-05-02T06:25:35.426Z,19.55
2023-05-02T06:29:06.076Z,19.74
2023-05-02T06:32:56.061Z,19.95
2023-05-02T06:36:23.858Z,20.23
2023-05-02T06:39:56.823Z,20.37
2023-05-02T06:43:22.569Z,20.46
2023-05-02T06:46:47.631Z,20.49
2023-05-02T06:50:12.858Z,20.51
2023-05-02T06:53:39.973Z,20.59
2023-05-02T06:57:12.164Z,20.74
2023-05-02T07:00:36.000Z,20.78
2023-05-02T07:04:02.211Z,20.82
2023-05-02T07:07:26.245Z,20.85
2023-05-02T07:10:52.478Z,20.91
2023-05-02T07:14:21.961Z,20.95
2023-05-02T07:17:55.485Z,21.09
2023-05-02T07:21:19.741Z,21.23
2023-05-02T07:24:44.169Z,21.33
2023-05-02T07:28:08.217Z,21.44
2023-05-02T07:31:40.283Z,21.51
2023-05-02T07:35:11.563Z,21.50
2023-05-02T07:38:42.209Z,21.49
2023-05-02T07:42:20.482Z,21.49
2023-05-02T07:45:59.588Z,21.56
2023-05-02T07:49:34.016Z,21.69
2023-05-02T07:53:12.489Z,21.76
2023-05-02T07:56:39.174Z,21.70
2023-05-02T08:00:18.877Z,21.69
2023-05-02T08:03:50.763Z,21.69
2023-05-02T08:07:17.736Z,21.80
2023-05-02T08:10:52.056Z,21.92
2023-05-02T08:14:17.496Z,22.02
2023-05-02T08:17:43.714Z,22.11
2023-05-02T08:21:19.744Z,22.19
2023-05-02T08:24:44.798Z,22.20
2023-05-02T08:28:42.911Z,22.31
2023-05-02T08:32:25.745Z,22.44
2023-05-02T08:35:53.293Z,22.62
2023-05-02T08:39:18.347Z,22.71
2023-05-02T08:42:57.398Z,22.70
2023-05-02T08:46:28.611Z,22.57
2023-05-02T08:50:02.890Z,22.67
2023-05-02T08:53:29.773Z,22.78
2023-05-02T08:56:54.299Z,22.67
2023-05-02T09:00:31.958Z,22.23
2023-05-02T09:04:02.588Z,22.07
2023-05-02T09:07:27.802Z,22.16
2023-05-02T09:11:06.890Z,22.56
2023-05-02T09:14:47.894Z,22.93
2023-05-02T09:18:25.504Z,23.06
2023-05-02T09:22:10.259Z,22.91
2023-05-02T09:25:39.241Z,22.87
2023-05-02T09:29:07.367Z,22.85
2023-05-02T09:32:45.616Z,22.65
2023-05-02T09:36:16.431Z,22.50
2023-05-02T09:39:40.823Z,22.44
2023-05-02T09:43:17.612Z,22.22
2023-05-02T09:47:02.799Z,21.98
2023-05-02T09:50:38.046Z,21.74
2023-05-02T09:55:01.455Z,21.48
2023-05-02T09:58:33.463Z,21.37
2023-05-02T10:02:05.438Z,21.64
2023-05-02T10:05:48.334Z,21.89
2023-05-02T10:09:22.880Z,22.01
2023-05-02T10:12:34.869Z,22.01
2023-05-02T10:16:03.436Z,22.22
2023-05-02T10:19:40.154Z,22.61
2023-05-02T10:23:12.476Z,22.98
2023-05-02T10:26:35.965Z,23.32
2023-05-02T10:30:24.469Z,23.59
2023-05-02T10:34:12.212Z,23.67
2023-05-02T10:37:38.842Z,23.62
2023-05-02T10:41:24.864Z,23.57
2023-05-02T10:45:03.441Z,23.37
2023-05-02T10:48:38.894Z,23.03
2023-05-02T10:52:53.908Z,22.86
2023-05-02T10:56:34.091Z,22.50
2023-05-02T11:00:40.532Z,22.28
2023-05-02T11:04:20.256Z,22.11
2023-05-02T11:07:48.132Z,21.97
2023-05-02T11:12:10.045Z,21.87
2023-05-02T11:16:09.171Z,21.81
2023-05-02T11:19:46.753Z,21.93
2023-05-02T11:23:16.460Z,22.05
2023-05-02T11:26:46.822Z,22.25
2023-05-02T11:30:10.388Z,22.36
2023-05-02T11:34:02.887Z,22.42
2023-05-02T11:37:33.782Z,22.58
2023-05-02T11:41:04.108Z,22.83
2023-05-02T11:44:54.837Z,22.92
2023-05-02T11:48:15.326Z,22.83
2023-05-02T11:51:40.875Z,22.58
2023-05-02T11:55:11.802Z,22.21
2023-05-02T11:58:37.529Z,21.95
2023-05-02T12:02:18.936Z,21.78
2023-05-02T12:05:56.036Z,21.78
2023-05-02T12:09:33.327Z,21.75
2023-05-02T12:13:09.379Z,21.59
2023-05-02T12:16:49.519Z,21.41
2023-05-02T12:20:19.472Z,21.39
2023-05-02T12:23:44.320Z,21.34
2023-05-02T12:27:20.911Z,21.38
2023-05-02T12:30:54.218Z,21.56
2023-05-02T12:34:36.012Z,21.61
2023-05-02T12:38:31.612Z,21.75
2023-05-02T12:42:03.381Z,21.63
2023-05-02T12:45:42.873Z,21.67
2023-05-02T12:49:29.356Z,21.65
2023-05-02T12:53:15.148Z,21.82
2023-05-02T12:57:04.694Z,22.05
2023-05-02T13:00:55.936Z,22.21
2023-05-02T13:04:21.714Z,22.02
2023-05-02T13:07:51.238Z,21.83
2023-05-02T13:11:19.972Z,21.39
2023-05-02T13:14:43.748Z,21.17
2023-05-02T13:18:48.018Z,20.97
2023-05-02T13:22:13.233Z,20.89
2023-05-02T13:25:40.991Z,20.85
2023-05-02T13:29:15.941Z,20.70
2023-05-02T13:33:04.811Z,20.52
2023-05-02T13:36:45.297Z,20.16
2023-05-02T13:40:14.074Z,20.18
2023-05-02T13:43:57.529Z,20.00
2023-05-02T13:47:24.862Z,19.88
2023-05-02T13:50:52.096Z,19.70
2023-05-02T13:54:20.835Z,19.56
2023-05-02T13:57:47.906Z,19.38
2023-05-02T14:01:28.499Z,19.01
2023-05-02T14:04:53.946Z,18.88
2023-05-02T14:08:28.598Z,18.59
2023-05-02T14:12:16.624Z,18.24
2023-05-02T14:15:59.272Z,17.90
2023-05-02T14:19:32.756Z,17.64
2023-05-02T14:22:57.774Z,17.38
2023-05-02T14:26:31.176Z,17.16
2023-05-02T14:30:16.232Z,16.91
2023-05-02T14:34:09.734Z,16.45
2023-05-02T14:38:13.535Z,15.86
2023-05-02T14:41:57.637Z,15.13
2023-05-02T14:46:03.241Z,14.40
2023-05-02T14:50:07.432Z,13.78
2023-05-02T14:54:34.958Z,13.51
2023-05-02T14:58:56.316Z,13.47
2023-05-02T15:03:06.518Z,13.50
2023-05-02T15:07:25.216Z,13.58
2023-05-02T15:11:30.183Z,13.61
2023-05-02T15:15:36.701Z,13.65
2023-05-02T15:19:31.262Z,13.66
2023-05-02T15:23:06.011Z,13.65
2023-05-02T15:27:06.946Z,13.67
2023-05-02T15:30:52.595Z,13.63
2023-05-02T15:34:55.727Z,13.53
2023-05-02T15:38:36.949Z,13.38
2023-05-02T15:42:44.787Z,13.29
2023-05-02T15:47:08.435Z,13.20
2023-05-02T15:51:05.398Z,13.04
2023-05-02T15:55:09.818Z,12.90
2023-05-02T15:59:16.565Z,12.78
2023-05-02T16:03:22.946Z,12.67
2023-05-02T16:07:47.383Z,12.64
2023-05-02T16:11:52.077Z,12.60
2023-05-02T16:15:28.811Z,12.59
2023-05-02T16:19:32.147Z,12.61
2023-05-02T16:23:37.364Z,12.60
2023-05-02T16:27:46.918Z,12.61
2023-05-02T16:32:20.008Z,12.61
2023-05-02T16:36:30.938Z,12.62
2023-05-02T16:40:38.914Z,12.61
2023-05-02T16:44:51.969Z,12.58
2023-05-02T16:48:56.402Z,12.57
2023-05-02T16:53:20.338Z,12.53
2023-05-02T16:57:27.857Z,12.50
2023-05-02T17:02:07.836Z,12.50
2023-05-02T17:06:19.561Z,12.51
2023-05-02T17:10:28.188Z,12.51
2023-05-02T17:14:50.770Z,12.50
2023-05-02T17:19:22.404Z,12.46
2023-05-02T17:23:48.001Z,12.42
2023-05-02T17:28:23.897Z,12.35
2023-05-02T17:32:27.836Z,12.28
2023-05-02T17:36:55.182Z,12.20
2023-05-02T17:41:37.896Z,12.11
2023-05-02T17:45:42.909Z,12.02
2023-05-02T17:50:07.609Z,11.91
2023-05-02T17:54:32.579Z,11.81
2023-05-02T17:58:44.125Z,11.75
2023-05-02T18:02:48.725Z,11.69
2023-05-02T18:07:32.684Z,11.61
2023-05-02T18:12:05.577Z,11.55
2023-05-02T18:15:56.016Z,11.51
2023-05-02T18:20:04.596Z,11.48
2023-05-02T18:24:49.118Z,11.45
2023-05-02T18:29:20.742Z,11.41
2023-05-02T18:33:36.772Z,11.35
2023-05-02T18:38:20.444Z,11.30
2023-05-02T18:42:45.640Z,11.23
2023-05-02T18:47:26.716Z,11.16
2023-05-02T18:51:46.348Z,11.07
2023-05-02T18:56:10.722Z,10.99
2023-05-02T19:00:55.199Z,10.92
2023-05-02T19:05:18.513Z,10.87
2023-05-02T19:10:02.604Z,10.79
2023-05-02T19:14:46.134Z,10.73
2023-05-02T19:19:20.178Z,10.70
2023-05-02T19:23:44.853Z,10.67
2023-05-02T19:28:21.550Z,10.65
2023-05-02T19:32:27.428Z,10.64
2023-05-02T19:37:11.665Z,10.64
2023-05-02T19:41:55.405Z,10.65
2023-05-02T19:46:09.053Z,10.65
2023-05-02T19:50:16.886Z,10.64
2023-05-02T20:06:35.776Z,10.61
2023-05-02T20:11:07.237Z,10.61
2023-05-02T20:15:31.423Z,10.59
2023-05-02T20:19:36.635Z,10.58
2023-05-02T20:23:45.478Z,10.56
2023-05-02T20:28:29.326Z,10.55
2023-05-02T20:33:15.616Z,10.54
2023-05-02T20:37:15.168Z,10.54
2023-05-02T20:41:15.392Z,10.54
2023-05-02T20:45:19.460Z,10.54
2023-05-02T20:49:43.508Z,10.53
2023-05-02T20:53:50.802Z,10.51
2023-05-02T20:57:59.382Z,10.50
2023-05-02T21:02:44.087Z,10.48
2023-05-02T21:07:11.934Z,10.49
2023-05-02T21:11:56.333Z,10.46
2023-05-02T21:16:35.904Z,10.43
2023-05-02T21:21:00.112Z,10.41
2023-05-02T21:25:05.518Z,10.39
2023-05-02T21:29:35.418Z,10.38
2023-05-02T21:34:19.959Z,10.36
2023-05-02T21:39:04.218Z,10.33
2023-05-02T21:43:01.889Z,10.31
2023-05-02T21:46:56.611Z,10.29
2023-05-02T21:51:22.535Z,10.27
2023-05-02T21:55:51.649Z,10.26
2023-05-02T22:00:00.599Z,10.24
2023-05-02T22:04:45.057Z,10.22
2023-05-02T22:09:17.232Z,10.21
2023-05-02T22:13:56.568Z,10.18
2023-05-02T22:18:25.902Z,10.16
2023-05-02T22:23:10.378Z,10.15
2023-05-02T22:27:54.745Z,10.15
2023-05-02T22:32:00.535Z,10.14
2023-05-02T22:36:24.447Z,10.12
2023-05-02T22:41:09.274Z,10.10
2023-05-02T22:45:32.145Z,10.09
2023-05-02T22:49:33.729Z,10.07
2023-05-02T22:53:44.691Z,10.06
2023-05-02T22:58:06.071Z,10.05
2023-05-02T23:02:09.836Z,10.04
2023-05-02T23:06:35.043Z,10.02
2023-05-02T23:11:19.112Z,10.02
2023-05-02T23:16:03.210Z,10.00
2023-05-02T23:20:24.961Z,9.99
2023-05-02T23:24:49.454Z,9.96
2023-05-02T23:29:30.717Z,9.93
2023-05-02T23:33:55.032Z,9.91
2023-05-02T23:38:22.600Z,9.87
2023-05-02T23:42:49.609Z,9.84
2023-05-02T23:47:33.250Z,9.81
2023-05-02T23:51:51.728Z,9.79
2023-05-02T23:56:36.282Z,9.78
